sensor_id;sensor_type;location;lat;lon;timestamp;P1;durP1;ratioP1;P2;durP2;ratioP2
71734;SDS011;59577;52.122;5.406;2023-06-14T00:02:21;2.60;;;1.55;;
71734;SDS011;59577;52.122;5.406;2023-06-14T00:04:48;4.75;;;1.48;;
71734;SDS011;59577;52.122;5.406;2023-06-14T00:07:17;2.78;;;1.20;;
71734;SDS011;59577;52.122;5.406;2023-06-14T00:09:45;2.03;;;1.20;;
71734;SDS011;59577;52.122;5.406;2023-06-14T00:12:11;4.40;;;1.40;;
71734;SDS011;59577;52.122;5.406;2023-06-14T00:14:38;2.92;;;1.50;;
71734;SDS011;59577;52.122;5.406;2023-06-14T00:17:04;1.80;;;1.25;;
71734;SDS011;59577;52.122;5.406;2023-06-14T00:19:33;3.38;;;1.05;;
71734;SDS011;59577;52.122;5.406;2023-06-14T00:22:02;5.95;;;2.03;;
71734;SDS011;59577;52.122;5.406;2023-06-14T00:24:29;2.27;;;1.20;;
71734;SDS011;59577;52.122;5.406;2023-06-14T00:26:56;5.78;;;1.40;;
71734;SDS011;59577;52.122;5.406;2023-06-14T00:29:22;4.90;;;1.35;;
71734;SDS011;59577;52.122;5.406;2023-06-14T00:31:49;3.13;;;1.25;;
71734;SDS011;59577;52.122;5.406;2023-06-14T00:34:16;6.32;;;1.40;;
71734;SDS011;59577;52.122;5.406;2023-06-14T00:36:42;2.43;;;1.30;;
71734;SDS011;59577;52.122;5.406;2023-06-14T00:39:09;3.25;;;1.30;;
71734;SDS011;59577;52.122;5.406;2023-06-14T00:41:36;1.77;;;1.25;;
71734;SDS011;59577;52.122;5.406;2023-06-14T00:44:02;3.90;;;1.20;;
71734;SDS011;59577;52.122;5.406;2023-06-14T00:46:29;3.97;;;1.63;;
71734;SDS011;59577;52.122;5.406;2023-06-14T00:48:56;5.73;;;1.40;;
71734;SDS011;59577;52.122;5.406;2023-06-14T00:51:25;2.75;;;1.13;;
71734;SDS011;59577;52.122;5.406;2023-06-14T00:53:53;2.97;;;1.35;;
71734;SDS011;59577;52.122;5.406;2023-06-14T00:56:20;6.40;;;1.58;;
71734;SDS011;59577;52.122;5.406;2023-06-14T00:58:47;5.15;;;1.30;;
71734;SDS011;59577;52.122;5.406;2023-06-14T01:01:14;4.50;;;1.40;;
71734;SDS011;59577;52.122;5.406;2023-06-14T01:03:41;4.53;;;1.30;;
71734;SDS011;59577;52.122;5.406;2023-06-14T01:08:57;4.28;;;1.20;;
71734;SDS011;59577;52.122;5.406;2023-06-14T01:11:33;1.95;;;1.30;;
71734;SDS011;59577;52.122;5.406;2023-06-14T01:14:07;2.70;;;1.27;;
71734;SDS011;59577;52.122;5.406;2023-06-14T01:16:38;2.38;;;1.10;;
71734;SDS011;59577;52.122;5.406;2023-06-14T01:19:07;2.25;;;0.75;;
71734;SDS011;59577;52.122;5.406;2023-06-14T01:21:40;6.10;;;1.30;;
71734;SDS011;59577;52.122;5.406;2023-06-14T01:24:10;2.05;;;1.10;;
71734;SDS011;59577;52.122;5.406;2023-06-14T01:26:37;4.43;;;1.17;;
71734;SDS011;59577;52.122;5.406;2023-06-14T01:29:05;2.30;;;1.23;;
71734;SDS011;59577;52.122;5.406;2023-06-14T01:31:32;4.53;;;1.17;;
71734;SDS011;59577;52.122;5.406;2023-06-14T01:34:07;1.92;;;1.00;;
71734;SDS011;59577;52.122;5.406;2023-06-14T01:36:35;3.60;;;1.33;;
71734;SDS011;59577;52.122;5.406;2023-06-14T01:39:05;3.67;;;1.00;;
71734;SDS011;59577;52.122;5.406;2023-06-14T01:41:32;2.30;;;1.00;;
71734;SDS011;59577;52.122;5.406;2023-06-14T01:44:00;2.65;;;1.17;;
71734;SDS011;59577;52.122;5.406;2023-06-14T01:46:28;2.10;;;1.17;;
71734;SDS011;59577;52.122;5.406;2023-06-14T01:48:54;2.92;;;1.02;;
71734;SDS011;59577;52.122;5.406;2023-06-14T01:51:21;3.97;;;1.00;;
71734;SDS011;59577;52.122;5.406;2023-06-14T01:53:47;3.35;;;1.50;;
71734;SDS011;59577;52.122;5.406;2023-06-14T01:56:14;5.13;;;1.17;;
71734;SDS011;59577;52.122;5.406;2023-06-14T01:58:42;4.18;;;1.38;;
71734;SDS011;59577;52.122;5.406;2023-06-14T02:01:08;2.83;;;1.25;;
71734;SDS011;59577;52.122;5.406;2023-06-14T02:03:35;4.23;;;1.17;;
71734;SDS011;59577;52.122;5.406;2023-06-14T02:06:04;2.05;;;1.17;;
71734;SDS011;59577;52.122;5.406;2023-06-14T02:08:31;5.28;;;1.10;;
71734;SDS011;59577;52.122;5.406;2023-06-14T02:10:57;6.07;;;1.33;;
71734;SDS011;59577;52.122;5.406;2023-06-14T02:13:24;2.97;;;1.10;;
71734;SDS011;59577;52.122;5.406;2023-06-14T02:15:50;8.07;;;1.17;;
71734;SDS011;59577;52.122;5.406;2023-06-14T02:18:21;3.00;;;1.15;;
71734;SDS011;59577;52.122;5.406;2023-06-14T02:20:47;2.30;;;1.10;;
71734;SDS011;59577;52.122;5.406;2023-06-14T02:23:14;4.13;;;1.50;;
71734;SDS011;59577;52.122;5.406;2023-06-14T02:25:40;2.88;;;1.42;;
71734;SDS011;59577;52.122;5.406;2023-06-14T02:28:07;5.03;;;1.30;;
71734;SDS011;59577;52.122;5.406;2023-06-14T02:30:34;2.08;;;1.00;;
71734;SDS011;59577;52.122;5.406;2023-06-14T02:33:00;3.33;;;1.40;;
71734;SDS011;59577;52.122;5.406;2023-06-14T02:35:27;2.47;;;1.35;;
71734;SDS011;59577;52.122;5.406;2023-06-14T02:37:53;8.93;;;1.35;;
71734;SDS011;59577;52.122;5.406;2023-06-14T02:40:20;4.90;;;1.30;;
71734;SDS011;59577;52.122;5.406;2023-06-14T02:42:47;1.77;;;1.58;;
71734;SDS011;59577;52.122;5.406;2023-06-14T02:45:13;5.70;;;1.00;;
71734;SDS011;59577;52.122;5.406;2023-06-14T02:47:41;2.17;;;1.30;;
71734;SDS011;59577;52.122;5.406;2023-06-14T02:50:08;3.38;;;1.60;;
71734;SDS011;59577;52.122;5.406;2023-06-14T02:52:34;3.23;;;1.17;;
71734;SDS011;59577;52.122;5.406;2023-06-14T02:55:01;1.70;;;1.00;;
71734;SDS011;59577;52.122;5.406;2023-06-14T02:57:27;4.15;;;1.40;;
71734;SDS011;59577;52.122;5.406;2023-06-14T02:59:54;4.20;;;1.48;;
71734;SDS011;59577;52.122;5.406;2023-06-14T03:02:21;2.95;;;1.58;;
71734;SDS011;59577;52.122;5.406;2023-06-14T03:04:47;7.90;;;1.47;;
71734;SDS011;59577;52.122;5.406;2023-06-14T03:07:14;3.47;;;1.33;;
71734;SDS011;59577;52.122;5.406;2023-06-14T03:09:48;2.80;;;1.60;;
71734;SDS011;59577;52.122;5.406;2023-06-14T03:12:15;2.28;;;1.30;;
71734;SDS011;59577;52.122;5.406;2023-06-14T03:14:41;3.15;;;1.63;;
71734;SDS011;59577;52.122;5.406;2023-06-14T03:17:08;8.93;;;1.37;;
71734;SDS011;59577;52.122;5.406;2023-06-14T03:19:36;4.13;;;1.25;;
71734;SDS011;59577;52.122;5.406;2023-06-14T03:22:03;3.25;;;1.15;;
71734;SDS011;59577;52.122;5.406;2023-06-14T03:24:31;2.83;;;1.30;;
71734;SDS011;59577;52.122;5.406;2023-06-14T03:27:03;3.97;;;1.40;;
71734;SDS011;59577;52.122;5.406;2023-06-14T03:29:30;3.50;;;1.30;;
71734;SDS011;59577;52.122;5.406;2023-06-14T03:32:05;1.98;;;1.33;;
71734;SDS011;59577;52.122;5.406;2023-06-14T03:34:32;2.03;;;1.27;;
71734;SDS011;59577;52.122;5.406;2023-06-14T03:36:59;7.88;;;1.30;;
71734;SDS011;59577;52.122;5.406;2023-06-14T03:39:25;3.65;;;1.30;;
71734;SDS011;59577;52.122;5.406;2023-06-14T03:41:52;1.53;;;1.07;;
71734;SDS011;59577;52.122;5.406;2023-06-14T03:44:18;4.38;;;1.23;;
71734;SDS011;59577;52.122;5.406;2023-06-14T03:46:45;4.90;;;1.40;;
71734;SDS011;59577;52.122;5.406;2023-06-14T03:49:13;5.68;;;1.83;;
71734;SDS011;59577;52.122;5.406;2023-06-14T03:51:39;3.72;;;1.40;;
71734;SDS011;59577;52.122;5.406;2023-06-14T03:54:06;3.20;;;1.53;;
71734;SDS011;59577;52.122;5.406;2023-06-14T03:56:53;3.30;;;1.20;;
71734;SDS011;59577;52.122;5.406;2023-06-14T03:59:19;5.22;;;1.45;;
71734;SDS011;59577;52.122;5.406;2023-06-14T04:01:46;3.90;;;1.33;;
71734;SDS011;59577;52.122;5.406;2023-06-14T04:04:13;3.05;;;1.50;;
71734;SDS011;59577;52.122;5.406;2023-06-14T04:06:39;6.77;;;1.20;;
71734;SDS011;59577;52.122;5.406;2023-06-14T04:09:07;5.10;;;1.40;;
71734;SDS011;59577;52.122;5.406;2023-06-14T04:11:33;2.30;;;1.20;;
71734;SDS011;59577;52.122;5.406;2023-06-14T04:14:01;4.47;;;1.33;;
71734;SDS011;59577;52.122;5.406;2023-06-14T04:16:28;3.50;;;1.30;;
71734;SDS011;59577;52.122;5.406;2023-06-14T04:18:55;4.30;;;1.50;;
71734;SDS011;59577;52.122;5.406;2023-06-14T04:21:24;6.97;;;1.13;;
71734;SDS011;59577;52.122;5.406;2023-06-14T04:23:54;3.97;;;1.38;;
71734;SDS011;59577;52.122;5.406;2023-06-14T04:26:21;5.40;;;1.33;;
71734;SDS011;59577;52.122;5.406;2023-06-14T04:28:52;3.13;;;1.20;;
71734;SDS011;59577;52.122;5.406;2023-06-14T04:31:19;3.93;;;1.20;;
71734;SDS011;59577;52.122;5.406;2023-06-14T04:33:47;2.53;;;1.33;;
71734;SDS011;59577;52.122;5.406;2023-06-14T04:36:17;3.97;;;1.23;;
71734;SDS011;59577;52.122;5.406;2023-06-14T04:38:44;4.97;;;1.17;;
71734;SDS011;59577;52.122;5.406;2023-06-14T04:41:15;2.63;;;1.20;;
71734;SDS011;59577;52.122;5.406;2023-06-14T04:43:42;3.10;;;1.60;;
71734;SDS011;59577;52.122;5.406;2023-06-14T04:46:08;3.03;;;1.25;;
71734;SDS011;59577;52.122;5.406;2023-06-14T04:48:40;6.05;;;1.52;;
71734;SDS011;59577;52.122;5.406;2023-06-14T04:51:08;2.08;;;1.00;;
71734;SDS011;59577;52.122;5.406;2023-06-14T04:53:35;4.57;;;1.15;;
71734;SDS011;59577;52.122;5.406;2023-06-14T04:56:02;2.60;;;1.20;;
71734;SDS011;59577;52.122;5.406;2023-06-14T04:58:30;4.03;;;1.38;;
71734;SDS011;59577;52.122;5.406;2023-06-14T05:00:56;3.50;;;1.60;;
71734;SDS011;59577;52.122;5.406;2023-06-14T05:03:25;4.30;;;1.30;;
71734;SDS011;59577;52.122;5.406;2023-06-14T05:05:53;6.03;;;1.20;;
71734;SDS011;59577;52.122;5.406;2023-06-14T05:08:22;4.07;;;1.27;;
71734;SDS011;59577;52.122;5.406;2023-06-14T05:10:52;4.05;;;1.20;;
71734;SDS011;59577;52.122;5.406;2023-06-14T05:13:19;3.50;;;1.30;;
71734;SDS011;59577;52.122;5.406;2023-06-14T05:15:45;3.60;;;1.40;;
71734;SDS011;59577;52.122;5.406;2023-06-14T05:18:12;3.85;;;1.52;;
71734;SDS011;59577;52.122;5.406;2023-06-14T05:20:40;7.47;;;1.57;;
71734;SDS011;59577;52.122;5.406;2023-06-14T05:23:08;5.95;;;1.48;;
71734;SDS011;59577;52.122;5.406;2023-06-14T05:25:44;6.25;;;1.67;;
71734;SDS011;59577;52.122;5.406;2023-06-14T05:28:11;3.60;;;1.85;;
71734;SDS011;59577;52.122;5.406;2023-06-14T05:30:38;4.45;;;1.60;;
71734;SDS011;59577;52.122;5.406;2023-06-14T05:33:06;3.40;;;1.20;;
71734;SDS011;59577;52.122;5.406;2023-06-14T05:35:33;5.15;;;1.65;;
71734;SDS011;59577;52.122;5.406;2023-06-14T05:38:00;4.40;;;1.80;;
71734;SDS011;59577;52.122;5.406;2023-06-14T05:40:26;7.18;;;1.45;;
71734;SDS011;59577;52.122;5.406;2023-06-14T05:42:53;2.90;;;1.98;;
71734;SDS011;59577;52.122;5.406;2023-06-14T05:45:20;3.17;;;1.63;;
71734;SDS011;59577;52.122;5.406;2023-06-14T05:47:46;4.15;;;2.15;;
71734;SDS011;59577;52.122;5.406;2023-06-14T05:50:13;5.25;;;1.55;;
71734;SDS011;59577;52.122;5.406;2023-06-14T05:52:40;4.20;;;1.60;;
71734;SDS011;59577;52.122;5.406;2023-06-14T05:55:07;3.90;;;1.83;;
71734;SDS011;59577;52.122;5.406;2023-06-14T05:57:34;3.77;;;1.60;;
71734;SDS011;59577;52.122;5.406;2023-06-14T06:00:00;4.78;;;1.95;;
71734;SDS011;59577;52.122;5.406;2023-06-14T06:02:27;3.85;;;1.90;;
71734;SDS011;59577;52.122;5.406;2023-06-14T06:04:53;2.33;;;1.52;;
71734;SDS011;59577;52.122;5.406;2023-06-14T06:07:20;11.80;;;1.70;;
71734;SDS011;59577;52.122;5.406;2023-06-14T06:09:46;5.47;;;1.90;;
71734;SDS011;59577;52.122;5.406;2023-06-14T06:12:13;3.05;;;1.73;;
71734;SDS011;59577;52.122;5.406;2023-06-14T06:14:40;4.72;;;1.70;;
71734;SDS011;59577;52.122;5.406;2023-06-14T06:17:07;4.20;;;1.98;;
71734;SDS011;59577;52.122;5.406;2023-06-14T06:19:33;7.30;;;2.08;;
71734;SDS011;59577;52.122;5.406;2023-06-14T06:22:00;4.53;;;1.87;;
71734;SDS011;59577;52.122;5.406;2023-06-14T06:24:26;2.47;;;1.98;;
71734;SDS011;59577;52.122;5.406;2023-06-14T06:26:53;7.30;;;1.92;;
71734;SDS011;59577;52.122;5.406;2023-06-14T06:29:19;2.30;;;2.10;;
71734;SDS011;59577;52.122;5.406;2023-06-14T06:31:46;3.78;;;1.92;;
71734;SDS011;59577;52.122;5.406;2023-06-14T06:34:13;4.73;;;2.40;;
71734;SDS011;59577;52.122;5.406;2023-06-14T06:36:39;5.80;;;2.80;;
71734;SDS011;59577;52.122;5.406;2023-06-14T06:39:06;3.92;;;1.70;;
71734;SDS011;59577;52.122;5.406;2023-06-14T06:41:37;4.93;;;2.15;;
71734;SDS011;59577;52.122;5.406;2023-06-14T06:44:06;4.07;;;2.35;;
71734;SDS011;59577;52.122;5.406;2023-06-14T06:46:33;4.57;;;2.10;;
71734;SDS011;59577;52.122;5.406;2023-06-14T06:49:01;5.93;;;1.67;;
71734;SDS011;59577;52.122;5.406;2023-06-14T06:51:27;3.40;;;1.88;;
71734;SDS011;59577;52.122;5.406;2023-06-14T06:53:54;2.53;;;1.88;;
71734;SDS011;59577;52.122;5.406;2023-06-14T06:56:21;6.45;;;2.10;;
71734;SDS011;59577;52.122;5.406;2023-06-14T06:58:52;3.53;;;1.70;;
71734;SDS011;59577;52.122;5.406;2023-06-14T07:01:19;3.58;;;1.80;;
71734;SDS011;59577;52.122;5.406;2023-06-14T07:03:46;6.50;;;2.15;;
71734;SDS011;59577;52.122;5.406;2023-06-14T07:06:12;2.75;;;1.70;;
71734;SDS011;59577;52.122;5.406;2023-06-14T07:08:39;5.00;;;1.83;;
71734;SDS011;59577;52.122;5.406;2023-06-14T07:11:05;7.80;;;2.37;;
71734;SDS011;59577;52.122;5.406;2023-06-14T07:13:32;7.40;;;2.00;;
71734;SDS011;59577;52.122;5.406;2023-06-14T07:15:59;5.70;;;1.98;;
71734;SDS011;59577;52.122;5.406;2023-06-14T07:18:27;2.35;;;2.13;;
71734;SDS011;59577;52.122;5.406;2023-06-14T07:20:53;5.93;;;2.20;;
71734;SDS011;59577;52.122;5.406;2023-06-14T07:23:20;5.93;;;1.90;;
71734;SDS011;59577;52.122;5.406;2023-06-14T07:25:47;2.95;;;1.77;;
71734;SDS011;59577;52.122;5.406;2023-06-14T07:28:13;5.28;;;2.00;;
71734;SDS011;59577;52.122;5.406;2023-06-14T07:30:41;3.53;;;1.50;;
71734;SDS011;59577;52.122;5.406;2023-06-14T07:33:07;4.22;;;2.03;;
71734;SDS011;59577;52.122;5.406;2023-06-14T07:35:35;5.40;;;1.80;;
71734;SDS011;59577;52.122;5.406;2023-06-14T07:38:01;4.57;;;1.92;;
71734;SDS011;59577;52.122;5.406;2023-06-14T07:40:28;6.90;;;1.80;;
71734;SDS011;59577;52.122;5.406;2023-06-14T07:42:54;3.15;;;1.80;;
71734;SDS011;59577;52.122;5.406;2023-06-14T07:45:21;2.20;;;1.80;;
71734;SDS011;59577;52.122;5.406;2023-06-14T07:47:47;3.87;;;1.33;;
71734;SDS011;59577;52.122;5.406;2023-06-14T07:50:14;6.68;;;1.60;;
71734;SDS011;59577;52.122;5.406;2023-06-14T07:52:41;2.67;;;1.60;;
71734;SDS011;59577;52.122;5.406;2023-06-14T07:55:07;3.25;;;1.75;;
71734;SDS011;59577;52.122;5.406;2023-06-14T07:57:34;3.70;;;1.40;;
71734;SDS011;59577;52.122;5.406;2023-06-14T08:00:01;5.83;;;1.70;;
71734;SDS011;59577;52.122;5.406;2023-06-14T08:02:28;3.08;;;1.30;;
71734;SDS011;59577;52.122;5.406;2023-06-14T08:04:55;6.30;;;1.48;;
71734;SDS011;59577;52.122;5.406;2023-06-14T08:07:21;1.83;;;1.50;;
71734;SDS011;59577;52.122;5.406;2023-06-14T08:09:48;2.85;;;1.30;;
71734;SDS011;59577;52.122;5.406;2023-06-14T08:12:14;2.33;;;1.40;;
71734;SDS011;59577;52.122;5.406;2023-06-14T08:14:41;2.15;;;1.50;;
71734;SDS011;59577;52.122;5.406;2023-06-14T08:17:08;5.13;;;1.30;;
71734;SDS011;59577;52.122;5.406;2023-06-14T08:19:35;1.40;;;1.30;;
71734;SDS011;59577;52.122;5.406;2023-06-14T08:22:02;1.40;;;1.30;;
71734;SDS011;59577;52.122;5.406;2023-06-14T08:24:29;2.33;;;1.20;;
71734;SDS011;59577;52.122;5.406;2023-06-14T08:26:57;2.33;;;1.35;;
71734;SDS011;59577;52.122;5.406;2023-06-14T08:29:24;1.35;;;1.20;;
71734;SDS011;59577;52.122;5.406;2023-06-14T08:31:50;2.20;;;1.02;;
71734;SDS011;59577;52.122;5.406;2023-06-14T08:34:16;2.88;;;1.30;;
71734;SDS011;59577;52.122;5.406;2023-06-14T08:36:43;2.87;;;1.17;;
71734;SDS011;59577;52.122;5.406;2023-06-14T08:39:10;1.90;;;1.25;;
71734;SDS011;59577;52.122;5.406;2023-06-14T08:41:37;2.47;;;1.30;;
71734;SDS011;59577;52.122;5.406;2023-06-14T08:44:04;3.75;;;1.10;;
71734;SDS011;59577;52.122;5.406;2023-06-14T08:46:31;2.15;;;1.20;;
71734;SDS011;59577;52.122;5.406;2023-06-14T08:49:00;2.93;;;1.10;;
71734;SDS011;59577;52.122;5.406;2023-06-14T08:51:29;1.42;;;1.10;;
71734;SDS011;59577;52.122;5.406;2023-06-14T08:54:00;1.67;;;1.15;;
71734;SDS011;59577;52.122;5.406;2023-06-14T08:56:28;3.10;;;1.10;;
71734;SDS011;59577;52.122;5.406;2023-06-14T08:58:56;1.60;;;1.50;;
71734;SDS011;59577;52.122;5.406;2023-06-14T09:01:27;2.00;;;0.90;;
71734;SDS011;59577;52.122;5.406;2023-06-14T09:03:54;4.93;;;1.25;;
71734;SDS011;59577;52.122;5.406;2023-06-14T09:06:23;2.47;;;1.20;;
71734;SDS011;59577;52.122;5.406;2023-06-14T09:08:51;1.45;;;1.10;;
71734;SDS011;59577;52.122;5.406;2023-06-14T09:11:18;1.10;;;0.93;;
71734;SDS011;59577;52.122;5.406;2023-06-14T09:13:46;4.63;;;0.90;;
71734;SDS011;59577;52.122;5.406;2023-06-14T09:16:12;1.25;;;1.00;;
71734;SDS011;59577;52.122;5.406;2023-06-14T09:18:40;3.28;;;1.10;;
71734;SDS011;59577;52.122;5.406;2023-06-14T09:21:10;2.65;;;0.90;;
71734;SDS011;59577;52.122;5.406;2023-06-14T09:23:38;1.33;;;1.02;;
71734;SDS011;59577;52.122;5.406;2023-06-14T09:26:16;3.03;;;1.30;;
71734;SDS011;59577;52.122;5.406;2023-06-14T09:28:44;3.03;;;1.10;;
71734;SDS011;59577;52.122;5.406;2023-06-14T09:31:15;5.20;;;1.30;;
71734;SDS011;59577;52.122;5.406;2023-06-14T09:33:45;1.88;;;1.00;;
71734;SDS011;59577;52.122;5.406;2023-06-14T09:36:15;2.35;;;1.30;;
71734;SDS011;59577;52.122;5.406;2023-06-14T09:38:54;1.40;;;1.23;;
71734;SDS011;59577;52.122;5.406;2023-06-14T09:41:30;1.35;;;1.15;;
71734;SDS011;59577;52.122;5.406;2023-06-14T09:43:59;1.13;;;1.02;;
71734;SDS011;59577;52.122;5.406;2023-06-14T09:46:34;1.20;;;1.10;;
71734;SDS011;59577;52.122;5.406;2023-06-14T09:49:02;1.77;;;1.40;;
71734;SDS011;59577;52.122;5.406;2023-06-14T09:51:29;1.40;;;1.10;;
71734;SDS011;59577;52.122;5.406;2023-06-14T09:54:00;3.83;;;1.23;;
71734;SDS011;59577;52.122;5.406;2023-06-14T09:56:32;1.50;;;1.40;;
71734;SDS011;59577;52.122;5.406;2023-06-14T09:59:09;1.35;;;1.25;;
71734;SDS011;59577;52.122;5.406;2023-06-14T10:01:43;2.83;;;1.10;;
71734;SDS011;59577;52.122;5.406;2023-06-14T10:04:11;2.03;;;1.37;;
71734;SDS011;59577;52.122;5.406;2023-06-14T10:06:43;5.20;;;1.30;;
71734;SDS011;59577;52.122;5.406;2023-06-14T10:09:14;2.47;;;1.20;;
71734;SDS011;59577;52.122;5.406;2023-06-14T10:11:41;4.70;;;1.40;;
71734;SDS011;59577;52.122;5.406;2023-06-14T10:14:11;1.25;;;1.15;;
71734;SDS011;59577;52.122;5.406;2023-06-14T10:16:56;1.53;;;1.20;;
71734;SDS011;59577;52.122;5.406;2023-06-14T10:19:32;2.42;;;1.35;;
71734;SDS011;59577;52.122;5.406;2023-06-14T10:22:06;4.10;;;1.13;;
71734;SDS011;59577;52.122;5.406;2023-06-14T10:24:40;1.20;;;1.10;;
71734;SDS011;59577;52.122;5.406;2023-06-14T10:27:09;2.47;;;1.10;;
71734;SDS011;59577;52.122;5.406;2023-06-14T10:32:21;2.17;;;1.02;;
71734;SDS011;59577;52.122;5.406;2023-06-14T10:34:55;1.10;;;0.93;;
71734;SDS011;59577;52.122;5.406;2023-06-14T10:37:23;3.03;;;1.15;;
71734;SDS011;59577;52.122;5.406;2023-06-14T10:39:53;3.33;;;1.20;;
71734;SDS011;59577;52.122;5.406;2023-06-14T10:42:20;2.40;;;1.00;;
71734;SDS011;59577;52.122;5.406;2023-06-14T10:44:49;1.88;;;1.00;;
71734;SDS011;59577;52.122;5.406;2023-06-14T10:47:22;2.20;;;1.20;;
71734;SDS011;59577;52.122;5.406;2023-06-14T10:49:51;1.30;;;1.10;;
71734;SDS011;59577;52.122;5.406;2023-06-14T10:52:27;1.65;;;1.38;;
71734;SDS011;59577;52.122;5.406;2023-06-14T10:57:43;1.85;;;0.85;;
71734;SDS011;59577;52.122;5.406;2023-06-14T11:00:18;3.58;;;1.17;;
71734;SDS011;59577;52.122;5.406;2023-06-14T11:05:45;3.67;;;1.27;;
71734;SDS011;59577;52.122;5.406;2023-06-14T11:11:12;1.27;;;1.15;;
71734;SDS011;59577;52.122;5.406;2023-06-14T11:13:41;3.65;;;0.93;;
71734;SDS011;59577;52.122;5.406;2023-06-14T11:16:13;2.28;;;1.00;;
71734;SDS011;59577;52.122;5.406;2023-06-14T11:18:42;2.13;;;0.90;;
71734;SDS011;59577;52.122;5.406;2023-06-14T11:21:10;3.97;;;1.10;;
71734;SDS011;59577;52.122;5.406;2023-06-14T11:23:36;2.00;;;0.90;;
71734;SDS011;59577;52.122;5.406;2023-06-14T11:26:03;1.45;;;1.10;;
71734;SDS011;59577;52.122;5.406;2023-06-14T11:28:37;3.83;;;1.08;;
71734;SDS011;59577;52.122;5.406;2023-06-14T11:31:07;1.88;;;1.02;;
71734;SDS011;59577;52.122;5.406;2023-06-14T11:33:33;5.20;;;1.40;;
71734;SDS011;59577;52.122;5.406;2023-06-14T11:36:03;3.22;;;0.90;;
71734;SDS011;59577;52.122;5.406;2023-06-14T11:38:35;2.65;;;1.20;;
71734;SDS011;59577;52.122;5.406;2023-06-14T11:41:02;1.30;;;1.05;;
71734;SDS011;59577;52.122;5.406;2023-06-14T11:43:29;2.72;;;1.27;;
71734;SDS011;59577;52.122;5.406;2023-06-14T11:45:58;1.53;;;1.10;;
71734;SDS011;59577;52.122;5.406;2023-06-14T11:48:40;2.92;;;1.23;;
71734;SDS011;59577;52.122;5.406;2023-06-14T11:51:08;5.85;;;1.42;;
71734;SDS011;59577;52.122;5.406;2023-06-14T11:53:34;4.55;;;0.82;;
71734;SDS011;59577;52.122;5.406;2023-06-14T11:56:01;1.33;;;1.10;;
71734;SDS011;59577;52.122;5.406;2023-06-14T11:58:29;2.40;;;1.00;;
71734;SDS011;59577;52.122;5.406;2023-06-14T12:00:56;0.80;;;0.80;;
71734;SDS011;59577;52.122;5.406;2023-06-14T12:03:23;1.67;;;0.93;;
71734;SDS011;59577;52.122;5.406;2023-06-14T12:06:01;0.77;;;0.77;;
71734;SDS011;59577;52.122;5.406;2023-06-14T12:08:32;3.15;;;1.00;;
71734;SDS011;59577;52.122;5.406;2023-06-14T12:11:05;2.70;;;1.00;;
71734;SDS011;59577;52.122;5.406;2023-06-14T12:13:34;0.70;;;0.70;;
71734;SDS011;59577;52.122;5.406;2023-06-14T12:16:03;1.20;;;0.90;;
71734;SDS011;59577;52.122;5.406;2023-06-14T12:18:37;1.73;;;0.90;;
71734;SDS011;59577;52.122;5.406;2023-06-14T12:21:08;1.77;;;1.00;;
71734;SDS011;59577;52.122;5.406;2023-06-14T12:23:43;1.93;;;0.80;;
71734;SDS011;59577;52.122;5.406;2023-06-14T12:26:17;1.95;;;0.80;;
71734;SDS011;59577;52.122;5.406;2023-06-14T12:28:45;1.45;;;1.02;;
71734;SDS011;59577;52.122;5.406;2023-06-14T12:31:13;5.78;;;1.48;;
71734;SDS011;59577;52.122;5.406;2023-06-14T12:33:41;6.95;;;0.82;;
71734;SDS011;59577;52.122;5.406;2023-06-14T12:36:08;3.73;;;1.00;;
71734;SDS011;59577;52.122;5.406;2023-06-14T12:38:36;3.78;;;1.00;;
71734;SDS011;59577;52.122;5.406;2023-06-14T12:41:04;2.45;;;1.00;;
71734;SDS011;59577;52.122;5.406;2023-06-14T12:43:31;2.72;;;0.90;;
71734;SDS011;59577;52.122;5.406;2023-06-14T12:45:57;6.68;;;1.35;;
71734;SDS011;59577;52.122;5.406;2023-06-14T12:48:25;2.37;;;0.80;;
71734;SDS011;59577;52.122;5.406;2023-06-14T12:50:53;1.88;;;1.02;;
71734;SDS011;59577;52.122;5.406;2023-06-14T12:53:19;1.10;;;1.00;;
71734;SDS011;59577;52.122;5.406;2023-06-14T12:55:47;3.42;;;0.90;;
71734;SDS011;59577;52.122;5.406;2023-06-14T12:58:13;2.03;;;0.80;;
71734;SDS011;59577;52.122;5.406;2023-06-14T13:00:40;1.47;;;0.77;;
71734;SDS011;59577;52.122;5.406;2023-06-14T13:03:07;1.95;;;0.88;;
71734;SDS011;59577;52.122;5.406;2023-06-14T13:05:33;0.77;;;0.60;;
71734;SDS011;59577;52.122;5.406;2023-06-14T13:08:00;2.35;;;0.70;;
71734;SDS011;59577;52.122;5.406;2023-06-14T13:10:27;2.30;;;0.80;;
71734;SDS011;59577;52.122;5.406;2023-06-14T13:12:54;2.00;;;0.97;;
71734;SDS011;59577;52.122;5.406;2023-06-14T13:15:21;1.95;;;0.70;;
71734;SDS011;59577;52.122;5.406;2023-06-14T13:17:47;1.10;;;0.73;;
71734;SDS011;59577;52.122;5.406;2023-06-14T13:20:15;6.10;;;1.00;;
71734;SDS011;59577;52.122;5.406;2023-06-14T13:22:46;1.88;;;0.85;;
71734;SDS011;59577;52.122;5.406;2023-06-14T13:25:13;3.03;;;0.80;;
71734;SDS011;59577;52.122;5.406;2023-06-14T13:27:39;2.60;;;0.70;;
71734;SDS011;59577;52.122;5.406;2023-06-14T13:30:06;4.07;;;1.20;;
71734;SDS011;59577;52.122;5.406;2023-06-14T13:32:33;2.40;;;1.10;;
71734;SDS011;59577;52.122;5.406;2023-06-14T13:35:00;2.95;;;1.08;;
71734;SDS011;59577;52.122;5.406;2023-06-14T13:37:27;3.10;;;1.00;;
71734;SDS011;59577;52.122;5.406;2023-06-14T13:39:54;1.67;;;0.90;;
71734;SDS011;59577;52.122;5.406;2023-06-14T13:42:21;1.80;;;1.10;;
71734;SDS011;59577;52.122;5.406;2023-06-14T13:44:48;1.42;;;0.93;;
71734;SDS011;59577;52.122;5.406;2023-06-14T13:47:15;1.48;;;0.93;;
71734;SDS011;59577;52.122;5.406;2023-06-14T13:49:42;2.73;;;0.90;;
71734;SDS011;59577;52.122;5.406;2023-06-14T13:52:08;2.40;;;0.70;;
71734;SDS011;59577;52.122;5.406;2023-06-14T13:54:35;3.03;;;0.90;;
71734;SDS011;59577;52.122;5.406;2023-06-14T13:57:02;2.75;;;1.15;;
71734;SDS011;59577;52.122;5.406;2023-06-14T13:59:29;1.48;;;1.00;;
71734;SDS011;59577;52.122;5.406;2023-06-14T14:01:57;2.17;;;0.87;;
71734;SDS011;59577;52.122;5.406;2023-06-14T14:04:23;1.90;;;1.02;;
71734;SDS011;59577;52.122;5.406;2023-06-14T14:06:50;1.20;;;0.70;;
71734;SDS011;59577;52.122;5.406;2023-06-14T14:09:17;1.95;;;0.90;;
71734;SDS011;59577;52.122;5.406;2023-06-14T14:11:44;1.10;;;0.70;;
71734;SDS011;59577;52.122;5.406;2023-06-14T14:14:10;2.83;;;0.67;;
71734;SDS011;59577;52.122;5.406;2023-06-14T14:16:37;0.90;;;0.75;;
71734;SDS011;59577;52.122;5.406;2023-06-14T14:19:04;3.15;;;0.85;;
71734;SDS011;59577;52.122;5.406;2023-06-14T14:21:32;3.08;;;0.75;;
71734;SDS011;59577;52.122;5.406;2023-06-14T14:23:59;0.88;;;0.60;;
71734;SDS011;59577;52.122;5.406;2023-06-14T14:26:25;1.33;;;0.73;;
71734;SDS011;59577;52.122;5.406;2023-06-14T14:28:52;0.98;;;0.60;;
71734;SDS011;59577;52.122;5.406;2023-06-14T14:31:19;2.17;;;0.60;;
71734;SDS011;59577;52.122;5.406;2023-06-14T14:33:45;1.23;;;0.70;;
71734;SDS011;59577;52.122;5.406;2023-06-14T14:36:12;3.67;;;0.60;;
71734;SDS011;59577;52.122;5.406;2023-06-14T14:38:39;2.07;;;0.60;;
71734;SDS011;59577;52.122;5.406;2023-06-14T14:41:06;2.17;;;0.50;;
71734;SDS011;59577;52.122;5.406;2023-06-14T14:43:33;3.20;;;0.70;;
71734;SDS011;59577;52.122;5.406;2023-06-14T14:46:00;1.40;;;0.68;;
71734;SDS011;59577;52.122;5.406;2023-06-14T14:48:26;1.75;;;0.60;;
71734;SDS011;59577;52.122;5.406;2023-06-14T14:50:53;3.00;;;0.60;;
71734;SDS011;59577;52.122;5.406;2023-06-14T14:53:19;4.85;;;0.80;;
71734;SDS011;59577;52.122;5.406;2023-06-14T14:55:46;0.60;;;0.52;;
71734;SDS011;59577;52.122;5.406;2023-06-14T14:58:13;0.77;;;0.50;;
71734;SDS011;59577;52.122;5.406;2023-06-14T15:00:46;2.05;;;0.50;;
71734;SDS011;59577;52.122;5.406;2023-06-14T15:03:13;1.00;;;0.60;;
71734;SDS011;59577;52.122;5.406;2023-06-14T15:05:40;0.88;;;0.50;;
71734;SDS011;59577;52.122;5.406;2023-06-14T15:08:07;2.20;;;0.68;;